Time;durP1;ratioP1;P1;durP2;ratioP2;P2;SDS_P1;SDS_P2;PMS_P1;PMS_P2;Temp;Humidity;BMP_temperature;BMP_pressure;BME280_temperature;BME280_humidity;BME280_pressure;Samples;Min_cycle;Max_cycle;Signal;HPM_P1;HPM_P2
2023/12/09 00:00:41;;;;;;;7.57;4.07;;;;;;;10.22;68.62;96968.28;4916521;28;20179;-79
2023/12/09 00:03:07;;;;;;;8.48;4.18;;;;;;;10.04;69.06;96963.41;4891340;28;20282;-79
2023/12/09 00:05:33;;;;;;;7.40;3.45;;;;;;;10.10;69.30;96970.25;4898101;28;20670;-79
2023/12/09 00:07:58;;;;;;;6.75;3.90;;;;;;;10.07;69.16;96973.34;4890728;28;20212;-79
2023/12/09 00:10:23;;;;;;;9.63;4.07;;;;;;;10.01;69.40;96971.72;4905171;28;20697;-79
2023/12/09 00:12:49;;;;;;;6.95;4.15;;;;;;;10.13;68.60;96980.16;4904441;28;20194;-79
2023/12/09 00:15:14;;;;;;;9.15;4.78;;;;;;;10.14;69.00;96981.72;4897699;28;20653;-79
2023/12/09 00:17:39;;;;;;;10.00;5.10;;;;;;;10.17;68.73;96991.66;4888433;28;20252;-78
2023/12/09 00:20:06;;;;;;;10.25;4.88;;;;;;;10.22;69.17;96986.50;4914878;28;20204;-79
2023/12/09 00:22:31;;;;;;;12.15;5.32;;;;;;;10.22;68.83;96988.31;4904432;28;20209;-79
2023/12/09 00:24:56;;;;;;;9.02;4.85;;;;;;;10.14;69.31;96994.72;4868007;28;20170;-79
2023/12/09 00:27:22;;;;;;;11.57;4.97;;;;;;;10.22;69.17;96989.09;4889040;28;20518;-78
2023/12/09 00:29:47;;;;;;;8.48;4.63;;;;;;;10.32;68.79;96990.25;4888532;28;20197;-79
2023/12/09 00:32:13;;;;;;;11.10;5.70;;;;;;;10.22;69.86;96990.91;4903838;28;20375;-78
2023/12/09 00:34:38;;;;;;;8.80;4.93;;;;;;;10.24;68.82;96992.22;4920383;28;20213;-79
2023/12/09 00:37:03;;;;;;;11.30;5.20;;;;;;;10.14;69.50;96981.72;4934585;28;20740;-79
2023/12/09 00:39:29;;;;;;;11.18;5.97;;;;;;;10.24;69.70;96989.63;4875799;28;20216;-79
2023/12/09 00:41:54;;;;;;;10.18;5.85;;;;;;;10.21;69.22;96990.13;4886680;28;20191;-78
2023/12/09 00:44:20;;;;;;;11.70;5.55;;;;;;;10.20;69.13;96982.56;4907418;28;20221;-78
2023/12/09 00:46:47;;;;;;;10.80;5.90;;;;;;;10.30;69.32;96986.03;4893238;28;20644;-78
2023/12/09 00:49:12;;;;;;;11.75;5.45;;;;;;;10.22;68.92;96986.50;4909672;28;20159;-79
2023/12/09 00:51:37;;;;;;;12.52;5.65;;;;;;;10.32;68.85;96985.84;4872064;28;20766;-78
2023/12/09 00:54:03;;;;;;;11.93;5.55;;;;;;;10.34;68.71;96993.41;4885808;28;20459;-79
2023/12/09 00:56:28;;;;;;;10.82;5.45;;;;;;;10.39;68.88;97003.84;4916769;28;20668;-79
2023/12/09 00:58:53;;;;;;;13.98;5.43;;;;;;;10.43;68.33;97000.50;4881734;28;20974;-79
2023/12/09 01:01:19;;;;;;;12.38;5.40;;;;;;;10.30;68.22;97006.88;4919489;28;20632;-79
2023/12/09 01:03:44;;;;;;;9.90;5.15;;;;;;;10.42;68.67;97011.94;4904126;28;20382;-79
2023/12/09 01:06:09;;;;;;;9.10;4.97;;;;;;;10.34;69.04;97011.63;4908082;28;20201;-78
2023/12/09 01:08:35;;;;;;;13.30;5.80;;;;;;;10.40;68.65;97015.81;4893562;28;20392;-79
2023/12/09 01:11:00;;;;;;;10.45;5.75;;;;;;;10.37;68.99;97011.91;4906685;28;20395;-79
2023/12/09 01:13:28;;;;;;;11.40;5.07;;;;;;;10.37;67.88;97011.91;4918957;28;20287;-79
2023/12/09 01:15:54;;;;;;;11.93;5.35;;;;;;;10.36;68.88;97018.13;4910546;28;20282;-79
2023/12/09 01:18:19;;;;;;;10.25;5.43;;;;;;;10.39;68.44;97017.66;4891429;28;20196;-79
2023/12/09 01:20:45;;;;;;;10.80;5.40;;;;;;;10.40;68.95;97028.84;4893623;28;20729;-79
2023/12/09 01:23:10;;;;;;;12.07;5.60;;;;;;;10.37;68.47;97022.31;4888328;28;20283;-79
2023/12/09 01:25:36;;;;;;;13.75;5.97;;;;;;;10.41;68.18;97025.22;4918393;28;20213;-78
2023/12/09 01:28:01;;;;;;;14.57;6.68;;;;;;;10.41;68.34;97020.78;4918530;28;20190;-79
2023/12/09 01:30:26;;;;;;;11.07;5.00;;;;;;;10.40;67.49;97010.63;4870544;28;20194;-79
2023/12/09 01:32:52;;;;;;;12.15;5.00;;;;;;;10.41;68.16;97022.59;4918114;28;20206;-79
2023/12/09 01:35:17;;;;;;;11.30;4.82;;;;;;;10.34;68.29;97014.22;4913373;28;20708;-78
2023/12/09 01:37:43;;;;;;;8.23;4.78;;;;;;;10.38;68.00;97023.09;4918112;28;20294;-79
2023/12/09 01:40:09;;;;;;;12.57;5.10;;;;;;;10.38;68.29;97023.88;4872216;28;20221;-79
2023/12/09 01:42:34;;;;;;;15.23;5.82;;;;;;;10.36;68.51;97030.38;4888429;28;20229;-79
2023/12/09 01:44:59;;;;;;;12.63;5.57;;;;;;;10.38;68.31;97028.28;4903124;28;20234;-78
2023/12/09 01:47:25;;;;;;;13.88;5.70;;;;;;;10.32;67.91;97014.47;4875326;28;20205;-78
2023/12/09 01:49:50;;;;;;;12.57;4.90;;;;;;;10.30;68.58;97027.69;4881752;28;20734;-79
2023/12/09 01:52:17;;;;;;;13.80;5.72;;;;;;;10.33;68.54;97023.03;4920835;28;20661;-79
2023/12/09 01:54:42;;;;;;;14.13;5.13;;;;;;;10.34;68.29;97027.22;4883864;28;20269;-79
2023/12/09 01:57:08;;;;;;;11.13;5.28;;;;;;;10.37;68.03;97026.75;4922443;28;20292;-79
2023/12/09 01:59:33;;;;;;;12.77;5.07;;;;;;;10.35;68.49;97024.38;4910791;28;20458;-79
2023/12/09 02:01:59;;;;;;;12.85;5.15;;;;;;;10.31;68.29;97023.25;4906590;28;20379;-79
2023/12/09 02:04:24;;;;;;;12.38;4.70;;;;;;;10.28;68.60;97021.94;4904034;28;20208;-79
2023/12/09 02:06:50;;;;;;;12.13;5.05;;;;;;;10.30;68.45;97030.28;4887539;28;20209;-79
2023/12/09 02:09:18;;;;;;;9.45;4.75;;;;;;;10.29;68.20;97020.13;4901690;28;20190;-79
2023/12/09 02:12:06;;;;;;;10.35;4.53;;;;;;;10.30;68.53;97022.47;4901938;28;20306;-79
2023/12/09 02:14:39;;;;;;;15.10;4.90;;;;;;;10.05;69.07;97009.22;4912781;28;20287;-79
2023/12/09 02:17:19;;;;;;;10.27;4.43;;;;;;;10.10;69.04;97017.06;4897761;28;20677;-79
2023/12/09 02:19:44;;;;;;;11.00;4.10;;;;;;;10.09;68.99;97000.69;4908339;28;20292;-79
2023/12/09 02:22:10;;;;;;;8.05;3.47;;;;;;;10.07;69.00;96996.75;4912140;28;20290;-79
2023/12/09 02:24:36;;;;;;;9.98;3.83;;;;;;;10.00;69.34;96991.72;4908385;28;20190;-79
2023/12/09 02:27:10;;;;;;;13.50;3.58;;;;;;;10.06;69.07;96985.56;4890576;28;20727;-79
2023/12/09 02:29:50;;;;;;;10.48;3.70;;;;;;;10.04;68.66;96968.63;4889567;28;20245;-79
2023/12/09 02:32:19;;;;;;;17.55;4.25;;;;;;;9.93;69.55;96971.13;4918243;28;20204;-79
2023/12/09 02:34:46;;;;;;;9.20;3.40;;;;;;;9.89;68.79;96969.28;4892111;28;20286;-79
2023/12/09 02:37:12;;;;;;;9.98;3.15;;;;;;;9.78;69.13;96960.56;4893440;28;20206;-79
2023/12/09 02:39:38;;;;;;;7.43;2.78;;;;;;;9.74;69.93;96938.69;4886965;28;20099;-79
2023/12/09 02:42:04;;;;;;;8.00;3.47;;;;;;;9.80;69.69;96942.91;4876624;28;20700;-79
2023/12/09 02:44:30;;;;;;;9.85;3.33;;;;;;;9.85;69.29;96942.97;4877668;28;20170;-79
2023/12/09 02:46:56;;;;;;;16.17;3.72;;;;;;;9.89;68.85;96948.47;4892032;28;20264;-79
2023/12/09 02:49:22;;;;;;;11.07;3.03;;;;;;;9.86;69.09;96948.94;4897381;28;20360;-79
2023/12/09 02:51:48;;;;;;;9.55;3.20;;;;;;;9.88;68.55;96945.06;4921292;28;20225;-79
2023/12/09 02:54:13;;;;;;;8.40;2.50;;;;;;;9.91;67.84;96936.78;4920613;28;20556;-79
2023/12/09 02:56:39;;;;;;;9.07;3.25;;;;;;;9.88;67.95;96937.25;4890000;28;20052;-79
2023/12/09 02:59:04;;;;;;;6.47;2.38;;;;;;;9.81;68.69;96944.47;4911834;28;20225;-79
2023/12/09 03:01:30;;;;;;;9.65;2.92;;;;;;;9.79;68.26;96943.94;4875060;28;20174;-79
2023/12/09 03:03:55;;;;;;;6.05;1.98;;;;;;;9.79;68.14;96938.75;4912192;28;20213;-79
2023/12/09 03:06:20;;;;;;;10.35;2.65;;;;;;;9.72;69.22;96941.53;4925175;28;20366;-79
2023/12/09 03:08:46;;;;;;;7.68;2.40;;;;;;;9.74;68.78;96947.25;4907952;28;20644;-79
2023/12/09 03:11:11;;;;;;;8.32;2.22;;;;;;;9.69;68.79;96944.59;4909061;28;20202;-79
2023/12/09 03:13:36;;;;;;;8.30;2.45;;;;;;;9.70;69.02;96941.00;4882405;28;20845;-79
2023/12/09 03:16:02;;;;;;;7.35;2.05;;;;;;;9.84;68.04;96941.38;4895076;28;20202;-79
2023/12/09 03:18:27;;;;;;;16.88;2.83;;;;;;;9.70;68.53;96945.41;4913668;28;20204;-79
2023/12/09 03:20:53;;;;;;;10.27;3.05;;;;;;;9.82;68.39;96946.06;4908659;28;20183;-79
2023/12/09 03:23:18;;;;;;;11.82;3.05;;;;;;;9.85;68.65;96932.56;4911590;28;20290;-79
2023/12/09 03:25:43;;;;;;;11.20;3.42;;;;;;;9.80;68.48;96935.13;4883681;28;20212;-79
2023/12/09 03:28:09;;;;;;;6.45;1.95;;;;;;;9.75;68.53;96922.84;4892548;28;20392;-79
2023/12/09 03:30:34;;;;;;;11.05;2.35;;;;;;;9.72;68.71;96945.94;4879890;28;20152;-79
2023/12/09 03:33:00;;;;;;;11.15;2.65;;;;;;;9.67;69.33;96925.09;4918853;28;20197;-79
2023/12/09 03:35:25;;;;;;;6.07;2.30;;;;;;;9.78;68.51;96926.75;4878973;28;20704;-79
2023/12/09 03:37:50;;;;;;;11.13;3.58;;;;;;;9.83;69.34;96939.81;4890968;28;20204;-79
2023/12/09 03:40:16;;;;;;;12.50;3.08;;;;;;;9.69;68.89;96933.44;4893132;28;20273;-79
2023/12/09 03:42:41;;;;;;;9.75;2.70;;;;;;;9.68;69.09;96939.66;4880723;28;20535;-79
2023/12/09 03:45:07;;;;;;;10.40;3.10;;;;;;;9.74;69.26;96936.88;4920034;28;20276;-79
2023/12/09 03:47:32;;;;;;;11.15;3.17;;;;;;;9.84;68.59;96944.00;4892629;28;20584;-79
2023/12/09 03:49:57;;;;;;;10.60;2.75;;;;;;;9.84;68.69;96945.81;4874820;28;20726;-79
2023/12/09 03:52:23;;;;;;;11.43;2.95;;;;;;;9.74;69.26;96947.25;4899159;28;20192;-79
2023/12/09 03:54:48;;;;;;;9.98;2.53;;;;;;;9.72;68.50;96938.16;4920360;28;20634;-79
2023/12/09 03:57:14;;;;;;;9.25;2.72;;;;;;;9.84;68.83;96943.22;4909112;28;20250;-79
2023/12/09 03:59:40;;;;;;;8.40;2.25;;;;;;;9.82;69.14;96927.84;4906613;28;20184;-79
2023/12/09 04:02:05;;;;;;;6.43;2.03;;;;;;;9.87;68.65;96951.31;4873470;28;20307;-79
2023/12/09 04:04:30;;;;;;;8.00;2.38;;;;;;;9.84;69.02;96928.38;4917753;28;20208;-79
2023/12/09 04:06:56;;;;;;;8.52;2.30;;;;;;;9.82;69.21;96940.84;4883640;28;20205;-79
2023/12/09 04:09:22;;;;;;;10.88;2.58;;;;;;;9.82;68.70;96914.84;4920490;28;20204;-79
2023/12/09 04:11:48;;;;;;;6.28;2.20;;;;;;;9.86;68.82;96938.56;4924004;28;20198;-79
2023/12/09 04:14:13;;;;;;;11.73;3.08;;;;;;;9.81;69.08;96910.66;4904354;28;20221;-79
2023/12/09 04:16:42;;;;;;;9.02;3.00;;;;;;;9.87;69.21;96940.91;4895092;28;20106;-79
2023/12/09 04:19:07;;;;;;;6.28;2.80;;;;;;;9.85;69.25;96927.38;4901477;28;20026;-79
2023/12/09 04:21:33;;;;;;;11.95;4.40;;;;;;;9.89;69.06;96933.63;4897937;28;20189;-79
2023/12/09 04:23:58;;;;;;;9.48;2.75;;;;;;;9.75;68.87;96922.06;4916616;28;20284;-79
2023/12/09 04:26:24;;;;;;;11.13;4.10;;;;;;;9.78;69.56;96915.59;4920863;28;20197;-79
2023/12/09 04:28:50;;;;;;;9.93;2.80;;;;;;;9.75;69.66;96928.03;4885138;28;20753;-79
2023/12/09 04:31:15;;;;;;;8.68;3.58;;;;;;;9.82;68.91;96924.44;4913396;28;20276;-79
2023/12/09 04:33:44;;;;;;;10.15;4.15;;;;;;;9.87;68.77;96927.09;4902423;28;20281;-78
2023/12/09 04:36:10;;;;;;;9.07;3.38;;;;;;;9.77;69.25;96925.22;4875812;28;20648;-79
2023/12/09 04:38:35;;;;;;;8.70;3.47;;;;;;;9.88;69.33;96916.47;4894075;28;20581;-79
2023/12/09 04:41:01;;;;;;;8.13;3.38;;;;;;;9.89;68.95;96923.25;4911892;28;20197;-79
2023/12/09 04:43:27;;;;;;;8.30;3.30;;;;;;;9.83;69.36;96913.81;4883091;28;20291;-79
2023/12/09 04:45:52;;;;;;;9.05;3.70;;;;;;;9.90;69.48;96901.41;4875749;28;20265;-79
2023/12/09 04:48:18;;;;;;;10.73;4.15;;;;;;;9.97;68.75;96892.59;4884642;28;20568;-79
2023/12/09 04:50:44;;;;;;;10.02;3.58;;;;;;;9.99;68.97;96891.34;4899496;28;20266;-78
2023/12/09 04:53:09;;;;;;;10.88;4.13;;;;;;;10.04;68.73;96898.38;4884738;28;20674;-78
2023/12/09 04:55:35;;;;;;;8.30;3.95;;;;;;;10.01;68.73;96883.31;4903352;28;20266;-78
2023/12/09 04:58:00;;;;;;;8.55;3.83;;;;;;;10.06;69.10;96884.13;4911666;28;20179;-79
2023/12/09 05:00:26;;;;;;;10.07;4.38;;;;;;;10.07;69.69;96884.91;4911256;28;20838;-79
2023/12/09 05:02:52;;;;;;;10.02;4.50;;;;;;;10.12;68.94;96877.13;4913789;28;20319;-79
2023/12/09 05:05:18;;;;;;;9.48;4.07;;;;;;;10.07;69.19;96875.25;4913219;28;20306;-79
2023/12/09 05:07:44;;;;;;;11.40;3.80;;;;;;;10.13;68.93;96878.72;4915149;28;20659;-79
2023/12/09 05:10:12;;;;;;;11.65;4.43;;;;;;;10.16;69.15;96873.03;4872589;28;20181;-79
2023/12/09 05:12:40;;;;;;;11.05;4.88;;;;;;;10.19;68.62;96869.13;4908793;28;20203;-79
2023/12/09 05:15:06;;;;;;;11.32;4.53;;;;;;;10.27;68.41;96866.84;4906228;28;20209;-78
2023/12/09 05:17:32;;;;;;;13.68;4.75;;;;;;;10.22;68.51;96859.00;4898234;28;20248;-79
2023/12/09 05:19:57;;;;;;;8.35;4.03;;;;;;;10.24;68.51;96862.13;4919867;28;20192;-79
2023/12/09 05:22:23;;;;;;;9.60;4.65;;;;;;;10.20;68.74;96857.69;4916967;28;20146;-79
2023/12/09 05:24:49;;;;;;;9.02;5.18;;;;;;;10.23;69.39;96844.97;4885300;28;20197;-79
2023/12/09 05:27:14;;;;;;;8.07;4.28;;;;;;;10.23;69.12;96842.38;4896962;28;20674;-79
2023/12/09 05:29:39;;;;;;;8.80;4.88;;;;;;;10.17;69.26;96850.38;4918507;28;20293;-79
2023/12/09 05:32:05;;;;;;;10.77;4.57;;;;;;;10.29;69.38;96840.56;4910054;28;20189;-79
2023/12/09 05:34:31;;;;;;;9.55;4.85;;;;;;;10.35;69.01;96831.00;4888779;28;20280;-79
2023/12/09 05:36:56;;;;;;;9.73;5.10;;;;;;;10.23;69.17;96821.53;4871548;28;20220;-79
2023/12/09 05:39:22;;;;;;;10.52;5.60;;;;;;;10.34;68.64;96832.06;4873766;28;20281;-80
2023/12/09 05:41:47;;;;;;;11.40;5.50;;;;;;;10.29;69.59;96827.56;4887760;28;20220;-79
2023/12/09 05:44:13;;;;;;;8.60;4.70;;;;;;;10.35;69.07;96829.19;4912154;28;20245;-79
2023/12/09 05:46:40;;;;;;;12.98;5.10;;;;;;;10.35;68.51;96829.19;4894855;28;20276;-79
2023/12/09 05:49:05;;;;;;;11.65;5.40;;;;;;;10.37;69.11;96834.16;4901455;28;20175;-80
2023/12/09 05:51:31;;;;;;;12.30;5.13;;;;;;;10.36;69.00;96828.16;4909833;28;20693;-79
2023/12/09 05:53:56;;;;;;;13.25;5.13;;;;;;;10.26;69.35;96826.25;4907287;28;20117;-79
2023/12/09 05:56:22;;;;;;;11.23;4.75;;;;;;;10.23;69.25;96820.75;4894965;28;20197;-79
2023/12/09 05:58:47;;;;;;;9.80;5.13;;;;;;;10.34;68.79;96819.03;4897386;28;20199;-79
2023/12/09 06:01:13;;;;;;;15.60;5.00;;;;;;;10.27;68.81;96820.00;4887208;28;20250;-80
2023/12/09 06:03:38;;;;;;;9.13;4.45;;;;;;;10.37;68.76;96818.53;4872290;28;20249;-79
2023/12/09 06:06:04;;;;;;;9.63;4.72;;;;;;;10.22;68.98;96821.78;4913046;28;20703;-79
2023/12/09 06:08:30;;;;;;;11.45;4.47;;;;;;;10.23;69.68;96818.94;4888229;28;20267;-80
2023/12/09 06:10:55;;;;;;;10.77;4.28;;;;;;;10.32;69.08;96821.13;4888608;28;20280;-80
2023/12/09 06:13:21;;;;;;;7.50;4.10;;;;;;;10.40;68.99;96818.03;4872191;28;20706;-79
2023/12/09 06:15:46;;;;;;;9.05;3.92;;;;;;;10.32;69.45;96824.50;4885789;28;20213;-79
2023/12/09 06:18:12;;;;;;;13.43;4.30;;;;;;;10.26;69.39;96823.66;4895100;28;20218;-79
2023/12/09 06:20:37;;;;;;;11.95;5.00;;;;;;;10.29;68.28;96828.34;4883138;28;20716;-79
2023/12/09 06:23:02;;;;;;;10.68;3.75;;;;;;;10.36;69.22;96817.75;4902756;28;20205;-80
2023/12/09 06:25:28;;;;;;;6.45;3.28;;;;;;;10.36;68.99;96825.53;4908609;28;20209;-79
2023/12/09 06:27:53;;;;;;;11.13;4.95;;;;;;;10.43;68.88;96825.31;4888048;28;20244;-79
2023/12/09 06:30:19;;;;;;;11.75;4.18;;;;;;;10.43;68.08;96815.69;4872659;28;20196;-79
2023/12/09 06:32:44;;;;;;;7.82;3.70;;;;;;;10.37;68.22;96810.75;4904013;28;20214;-79
2023/12/09 06:35:09;;;;;;;8.60;4.43;;;;;;;10.40;68.05;96812.81;4904024;28;20257;-79
2023/12/09 06:37:35;;;;;;;8.52;3.50;;;;;;;10.39;68.81;96801.63;4920603;28;20262;-80
2023/12/09 06:40:00;;;;;;;9.55;4.07;;;;;;;10.36;68.63;96796.91;4869869;28;20155;-80
2023/12/09 06:42:25;;;;;;;7.85;3.03;;;;;;;10.37;68.32;96805.53;4899235;28;20212;-79
2023/12/09 06:44:51;;;;;;;7.45;3.28;;;;;;;10.39;68.84;96817.25;4896025;28;20686;-79
2023/12/09 06:47:16;;;;;;;8.98;2.92;;;;;;;10.41;68.36;96825.56;4887449;28;20640;-79
2023/12/09 06:49:42;;;;;;;10.40;4.35;;;;;;;10.42;68.44;96811.53;4872816;28;20272;-80
2023/12/09 06:52:07;;;;;;;8.98;3.53;;;;;;;10.41;67.97;96804.75;4900596;28;20182;-79
2023/12/09 06:54:32;;;;;;;9.77;3.47;;;;;;;10.26;68.45;96808.03;4888638;28;20244;-79
2023/12/09 06:56:58;;;;;;;8.20;3.38;;;;;;;10.29;68.14;96809.34;4910474;28;20234;-79
2023/12/09 06:59:25;;;;;;;6.53;3.15;;;;;;;10.23;68.34;96816.34;4878158;28;20264;-79
2023/12/09 07:01:50;;;;;;;7.88;3.85;;;;;;;10.26;68.32;96818.44;4897427;28;20283;-80
2023/12/09 07:04:16;;;;;;;6.30;3.35;;;;;;;10.00;69.18;96814.09;4892393;28;20168;-80
2023/12/09 07:06:41;;;;;;;10.93;4.05;;;;;;;9.70;70.07;96826.59;4892760;28;20604;-83
2023/12/09 07:09:08;;;;;;;6.05;3.00;;;;;;;10.17;68.34;96817.34;4877443;28;20197;-79
2023/12/09 07:11:33;;;;;;;8.90;2.80;;;;;;;10.17;67.74;96814.72;4906288;28;20197;-80
2023/12/09 07:13:59;;;;;;;11.90;3.28;;;;;;;10.15;67.18;96814.19;4892379;28;20193;-79
2023/12/09 07:16:24;;;;;;;9.43;3.28;;;;;;;10.22;67.64;96819.19;4919816;28;20209;-80
2023/12/09 07:18:51;;;;;;;6.93;2.90;;;;;;;10.28;67.92;96811.19;4907793;28;20327;-79
2023/12/09 07:21:16;;;;;;;10.90;3.47;;;;;;;10.13;68.40;96817.06;4907953;28;20190;-79
2023/12/09 07:23:42;;;;;;;5.03;2.60;;;;;;;10.12;68.16;96822.50;4874231;28;20656;-79
2023/12/09 07:26:08;;;;;;;9.15;3.03;;;;;;;10.23;67.82;96823.34;4923777;28;20297;-80
2023/12/09 07:28:33;;;;;;;8.45;3.70;;;;;;;10.03;68.47;96824.00;4906401;28;20337;-79
2023/12/09 07:30:59;;;;;;;10.10;3.35;;;;;;;10.15;68.75;96816.81;4875448;28;20723;-79
2023/12/09 07:33:25;;;;;;;8.85;4.00;;;;;;;10.13;68.16;96826.69;4891763;28;20474;-81
2023/12/09 07:35:50;;;;;;;8.27;4.75;;;;;;;10.07;68.32;96820.63;4907899;28;20301;-80
2023/12/09 07:38:15;;;;;;;8.55;3.60;;;;;;;10.05;68.30;96829.75;4893615;28;20342;-80
2023/12/09 07:40:41;;;;;;;8.65;3.40;;;;;;;10.07;68.73;96830.28;4903714;28;20370;-80
2023/12/09 07:43:07;;;;;;;11.05;3.63;;;;;;;9.92;68.75;96825.72;4922736;28;20189;-79
2023/12/09 07:45:33;;;;;;;12.93;4.20;;;;;;;9.72;69.83;96821.16;4892235;28;20201;-80
2023/12/09 07:47:58;;;;;;;9.60;3.45;;;;;;;9.99;68.05;96804.72;4908066;28;20621;-79
2023/12/09 07:50:24;;;;;;;8.60;3.40;;;;;;;10.00;68.97;96814.09;4911903;28;20193;-80
2023/12/09 07:52:49;;;;;;;12.07;3.92;;;;;;;9.95;68.88;96801.81;4895834;28;20202;-80
2023/12/09 07:55:15;;;;;;;9.98;3.15;;;;;;;9.83;69.41;96820.19;4874850;28;20194;-80
2023/12/09 07:57:41;;;;;;;5.93;2.80;;;;;;;9.80;69.36;96805.13;4891157;28;20167;-79
2023/12/09 08:00:07;;;;;;;7.97;3.50;;;;;;;9.87;68.99;96790.09;4899162;28;20247;-80
2023/12/09 08:02:32;;;;;;;11.45;4.00;;;;;;;9.97;68.31;96788.59;4907984;28;20204;-80
2023/12/09 08:04:58;;;;;;;8.52;3.60;;;;;;;9.92;69.00;96766.72;4891719;28;20163;-81
2023/12/09 08:07:23;;;;;;;13.57;4.32;;;;;;;9.98;68.03;96771.94;4903813;28;20628;-80
2023/12/09 08:09:48;;;;;;;9.25;3.03;;;;;;;10.11;68.12;96769.69;4873880;28;20244;-80
2023/12/09 08:12:14;;;;;;;7.55;2.80;;;;;;;10.12;68.04;96771.25;4893469;28;20190;-79
2023/12/09 08:14:39;;;;;;;7.85;3.28;;;;;;;10.07;68.14;96773.03;4905826;28;20201;-79
2023/12/09 08:17:05;;;;;;;7.65;3.00;;;;;;;10.18;67.90;96776.47;4884462;28;20201;-79
2023/12/09 08:19:30;;;;;;;7.45;2.65;;;;;;;10.13;68.86;96782.47;4874058;28;20155;-80
2023/12/09 08:21:56;;;;;;;7.60;2.63;;;;;;;10.10;68.50;96778.53;4874557;28;20510;-80
2023/12/09 08:24:23;;;;;;;11.15;3.13;;;;;;;10.17;68.60;96770.50;4920269;28;20284;-80
2023/12/09 08:26:49;;;;;;;7.38;2.53;;;;;;;9.94;68.58;96764.66;4873560;28;20272;-79
2023/12/09 08:29:14;;;;;;;5.53;2.58;;;;;;;10.14;68.08;96768.41;4907408;28;20076;-80
2023/12/09 08:31:46;;;;;;;6.20;2.55;;;;;;;10.19;68.73;96759.84;4896203;28;20284;-80
2023/12/09 08:34:12;;;;;;;8.27;2.53;;;;;;;10.21;67.49;96763.78;4905558;28;20546;-80
2023/12/09 08:36:38;;;;;;;11.73;2.90;;;;;;;10.17;67.79;96748.91;4882430;28;20325;-79
2023/12/09 08:39:03;;;;;;;9.68;2.50;;;;;;;10.23;67.70;96735.69;4889606;28;20659;-80
2023/12/09 08:41:29;;;;;;;5.03;2.53;;;;;;;10.25;68.20;96738.03;4879033;28;20343;-80
2023/12/09 08:43:54;;;;;;;7.15;2.25;;;;;;;10.33;67.62;96744.59;4895650;28;20220;-80
2023/12/09 08:46:20;;;;;;;4.28;2.13;;;;;;;10.29;68.15;96733.88;4908401;28;20450;-79
2023/12/09 08:48:46;;;;;;;6.70;2.13;;;;;;;10.21;67.65;96742.97;4906666;28;20099;-79
2023/12/09 08:51:12;;;;;;;4.70;2.35;;;;;;;10.27;67.68;96739.34;4909137;28;20300;-79
2023/12/09 08:53:37;;;;;;;5.25;1.95;;;;;;;10.46;67.16;96741.53;4922578;28;20289;-79
2023/12/09 08:56:03;;;;;;;9.90;3.10;;;;;;;10.36;67.49;96733.69;4915083;28;20256;-79
2023/12/09 08:58:28;;;;;;;8.77;2.88;;;;;;;10.27;67.39;96715.16;4920449;28;20648;-79
2023/12/09 09:00:54;;;;;;;8.32;2.97;;;;;;;10.22;67.81;96721.09;4908581;28;20170;-79
2023/12/09 09:03:19;;;;;;;5.90;2.45;;;;;;;10.21;67.81;96716.94;4916742;28;20248;-78
2023/12/09 09:05:45;;;;;;;7.35;2.13;;;;;;;10.12;67.58;96708.81;4915244;28;20261;-79
2023/12/09 09:08:10;;;;;;;6.60;2.25;;;;;;;10.28;67.38;96696.69;4891557;28;20241;-79
2023/12/09 09:10:35;;;;;;;7.03;2.38;;;;;;;10.30;67.53;96712.81;4904270;28;20288;-79
2023/12/09 09:13:01;;;;;;;6.53;2.45;;;;;;;9.99;68.29;96713.69;4888077;28;20284;-79
2023/12/09 09:15:27;;;;;;;5.20;1.90;;;;;;;10.24;67.42;96711.22;4873069;28;20469;-79
2023/12/09 09:17:52;;;;;;;4.93;2.30;;;;;;;10.16;68.09;96711.72;4896413;28;20220;-79
2023/12/09 09:20:17;;;;;;;8.20;2.63;;;;;;;10.07;67.72;96715.81;4906160;28;20281;-79
2023/12/09 09:22:43;;;;;;;3.78;2.38;;;;;;;10.27;67.56;96713.31;4908222;28;20217;-79
2023/12/09 09:25:09;;;;;;;4.30;2.08;;;;;;;10.22;67.50;96717.72;4887889;28;20288;-79
2023/12/09 09:27:34;;;;;;;7.68;2.38;;;;;;;10.32;67.33;96711.81;4889571;28;20182;-78
2023/12/09 09:30:00;;;;;;;7.47;2.33;;;;;;;10.28;67.57;96709.69;4873318;28;20656;-79
2023/12/09 09:32:25;;;;;;;7.43;2.25;;;;;;;10.20;68.15;96720.56;4925051;28;20297;-79
2023/12/09 09:34:50;;;;;;;8.10;2.53;;;;;;;10.23;67.46;96704.47;4925117;28;20158;-79
2023/12/09 09:37:16;;;;;;;4.30;1.83;;;;;;;10.28;67.77;96694.09;4881784;28;20244;-79
2023/12/09 09:39:41;;;;;;;4.20;1.85;;;;;;;10.29;67.86;96690.44;4910094;28;20182;-79
2023/12/09 09:42:11;;;;;;;8.65;2.10;;;;;;;10.28;67.28;96690.69;4888648;28;20170;-78
2023/12/09 09:44:38;;;;;;;6.13;1.80;;;;;;;10.18;67.11;96693.22;4926515;28;20718;-78
2023/12/09 09:47:04;;;;;;;5.95;2.25;;;;;;;10.20;67.60;96681.56;4876084;28;20490;-79
2023/12/09 09:49:31;;;;;;;8.80;3.10;;;;;;;10.29;67.21;96687.81;4892703;28;20730;-79
2023/12/09 09:51:57;;;;;;;8.60;1.98;;;;;;;10.26;67.51;96683.16;4909502;28;20169;-79
2023/12/09 09:54:32;;;;;;;6.20;1.95;;;;;;;10.57;67.36;96679.88;4884593;28;20681;-79
2023/12/09 09:56:58;;;;;;;7.50;1.77;;;;;;;10.53;67.13;96681.44;4908720;28;20174;-79
2023/12/09 09:59:25;;;;;;;4.45;2.05;;;;;;;10.55;65.86;96674.94;4907441;28;20728;-79
2023/12/09 10:01:50;;;;;;;5.43;1.88;;;;;;;10.52;66.85;96670.25;4905878;28;20285;-78
2023/12/09 10:04:16;;;;;;;4.13;1.60;;;;;;;10.62;66.58;96659.06;4871042;28;20216;-79
2023/12/09 10:06:43;;;;;;;6.60;1.77;;;;;;;10.65;66.49;96664.53;4916982;28;20312;-79
2023/12/09 10:09:08;;;;;;;3.33;1.25;;;;;;;10.66;66.91;96667.94;4898128;28;20290;-79
2023/12/09 10:11:33;;;;;;;6.30;2.10;;;;;;;10.51;66.67;96657.50;4890461;28;20746;-79
2023/12/09 10:13:59;;;;;;;5.43;1.42;;;;;;;10.54;65.92;96656.97;4924612;28;20268;-79
2023/12/09 10:16:24;;;;;;;5.18;1.50;;;;;;;10.56;66.56;96660.88;4914396;28;20286;-78
2023/12/09 10:18:50;;;;;;;7.07;1.85;;;;;;;10.57;67.28;96653.84;4919824;28;20538;-78
2023/12/09 10:21:16;;;;;;;6.68;1.38;;;;;;;10.47;65.94;96641.63;4918094;28;20379;-79
2023/12/09 10:23:44;;;;;;;4.57;1.42;;;;;;;10.59;66.41;96638.75;4902886;28;20691;-79
2023/12/09 10:26:10;;;;;;;4.07;1.35;;;;;;;10.55;66.35;96641.09;4873175;28;20193;-79
2023/12/09 10:28:36;;;;;;;6.35;2.08;;;;;;;10.49;66.71;96613.50;4909005;28;20216;-79
2023/12/09 10:31:02;;;;;;;6.15;2.33;;;;;;;10.51;66.80;96615.84;4906214;28;20209;-78
2023/12/09 10:33:32;;;;;;;5.60;2.30;;;;;;;10.49;66.94;96605.69;4911808;28;20144;-79
2023/12/09 10:35:57;;;;;;;4.75;1.35;;;;;;;10.41;66.23;96593.94;4907628;28;20195;-79
2023/12/09 10:38:23;;;;;;;8.30;1.48;;;;;;;10.39;66.63;96574.44;4891731;28;20200;-79
2023/12/09 10:40:53;;;;;;;3.22;1.13;;;;;;;10.40;66.58;96578.59;4894669;28;20687;-79
2023/12/09 10:43:19;;;;;;;4.85;1.60;;;;;;;10.39;66.52;96570.00;4902648;28;20115;-79
2023/12/09 10:45:44;;;;;;;6.45;2.03;;;;;;;10.32;66.42;96561.69;4892205;28;20625;-78
2023/12/09 10:48:10;;;;;;;8.30;1.50;;;;;;;10.45;66.36;96550.78;4893497;28;20201;-78
2023/12/09 10:50:38;;;;;;;4.50;2.25;;;;;;;10.60;65.82;96538.81;4909525;28;20178;-79
2023/12/09 10:53:04;;;;;;;7.38;2.25;;;;;;;10.40;65.90;96524.75;4927279;28;20370;-79
2023/12/09 10:55:30;;;;;;;6.80;1.63;;;;;;;10.51;66.97;96520.31;4927660;28;20201;-79
2023/12/09 10:57:57;;;;;;;5.82;1.77;;;;;;;10.51;66.50;96512.50;4908494;28;20309;-79
2023/12/09 11:00:24;;;;;;;6.00;1.55;;;;;;;10.38;66.58;96492.97;4903898;28;20252;-79
2023/12/09 11:02:50;;;;;;;7.35;1.48;;;;;;;10.57;65.89;96480.22;4931184;28;20197;-79
2023/12/09 11:05:17;;;;;;;5.25;1.60;;;;;;;10.48;66.20;96466.19;4892888;28;20592;-79
2023/12/09 11:07:44;;;;;;;4.75;1.73;;;;;;;10.48;66.21;96466.19;4892210;28;20166;-78
2023/12/09 11:10:10;;;;;;;5.28;1.80;;;;;;;10.57;66.14;96448.97;4925325;28;20651;-78
2023/12/09 11:12:36;;;;;;;6.07;1.50;;;;;;;10.57;66.04;96451.59;4928541;28;20338;-79
2023/12/09 11:15:13;;;;;;;4.40;1.70;;;;;;;10.70;66.05;96445.06;4917526;28;20217;-79
2023/12/09 11:17:40;;;;;;;2.97;1.10;;;;;;;10.55;65.66;96445.09;4914158;28;20654;-78
2023/12/09 11:20:14;;;;;;;3.10;1.00;;;;;;;10.53;65.99;96437.53;4910721;28;20215;-78
2023/12/09 11:22:40;;;;;;;7.35;1.63;;;;;;;10.54;65.66;96426.09;4921988;28;20593;-79
2023/12/09 11:25:18;;;;;;;4.80;2.00;;;;;;;10.68;65.87;96418.53;4895012;28;20174;-79